PWSweather.com
Personal Weather Stations
Station Observations
WD4JKH
Forsyth, GA 31029

Forsyth, GA 31029

Lat: 33.033225, Lon: -83.927995

Elevation: 709

Station Type: Davis Vantage VUE

High Low Average
Temperature 81.2°F27.3°C 68.9°F20.5°C 72.6°F22.6°C
Dew Point 74.1°F23.4°C 68.3°F20.2°C 71.1°F21.7°C
Winds 6.7 mph 10.8 kmh Calm Calm 2.0 mph SE3.2 kmh SE
Wind Gusts 15.0 mph24.1 kmh 2.0 mph3.2 kmh 5.0 mph8.0 kmh
Humidity 99% 76% 95%
Pressure 29.92 in1013.2 mb 29.84 in1010.5 mb -
Precipitation 0.34 in8.6 mm - -
Hour Temp Dew Point Humidity Winds Wind Gusts Pressure Precip Precip Rate Daily Precip Total
12:04 AM 70.0°F21.1°C 69.4°F20.8°C 98% 2.3 mph SE3.7 kmh SE 4.0 mph6.4 kmh 29.86 in1011.2 mb 0.00 in0.0 mm 0.00 in0.0 mm 0.00 in0.0 mm
12:09 AM 70.1°F21.2°C 69.5°F20.8°C 98% 1.8 mph SE2.9 kmh SE 4.0 mph6.4 kmh 29.86 in1011.2 mb 0.00 in0.0 mm 0.00 in0.0 mm 0.00 in0.0 mm
12:14 AM 70.1°F21.2°C 69.5°F20.8°C 98% 1.6 mph SE2.6 kmh SE 4.0 mph6.4 kmh 29.86 in1011.2 mb 0.00 in0.0 mm 0.00 in0.0 mm 0.00 in0.0 mm
12:19 AM 70.0°F21.1°C 69.4°F20.8°C 98% 2.1 mph SE3.4 kmh SE 4.0 mph6.4 kmh 29.86 in1011.2 mb 0.00 in0.0 mm 0.00 in0.0 mm 0.00 in0.0 mm
12:24 AM 70.0°F21.1°C 69.4°F20.8°C 98% 3.0 mph SE4.8 kmh SE 4.0 mph6.4 kmh 29.86 in1011.2 mb 0.00 in0.0 mm 0.00 in0.0 mm 0.00 in0.0 mm
12:29 AM 70.0°F21.1°C 69.7°F20.9°C 99% 3.6 mph SE5.8 kmh SE 5.0 mph8.0 kmh 29.86 in1011.2 mb 0.00 in0.0 mm 0.00 in0.0 mm 0.00 in0.0 mm
12:34 AM 70.0°F21.1°C 69.7°F20.9°C 99% 2.9 mph SE4.7 kmh SE 6.0 mph9.7 kmh 29.86 in1011.2 mb 0.00 in0.0 mm 0.00 in0.0 mm 0.00 in0.0 mm
12:39 AM 69.9°F21.1°C 69.6°F20.9°C 99% 4.2 mph SE6.8 kmh SE 6.0 mph9.7 kmh 29.86 in1011.2 mb 0.00 in0.0 mm 0.00 in0.0 mm 0.00 in0.0 mm
12:44 AM 69.9°F21.1°C 69.3°F20.7°C 98% 3.2 mph SE5.1 kmh SE 9.0 mph14.5 kmh 29.86 in1011.2 mb 0.00 in0.0 mm 0.00 in0.0 mm 0.00 in0.0 mm
12:49 AM 69.9°F21.1°C 69.3°F20.7°C 98% 2.6 mph SE4.2 kmh SE 9.0 mph14.5 kmh 29.87 in1011.5 mb 0.00 in0.0 mm 0.00 in0.0 mm 0.00 in0.0 mm
12:54 AM 69.9°F21.1°C 69.3°F20.7°C 98% 2.5 mph SE4.0 kmh SE 9.0 mph14.5 kmh 29.86 in1011.2 mb 0.00 in0.0 mm 0.00 in0.0 mm 0.00 in0.0 mm
12:59 AM 69.9°F21.1°C 69.3°F20.7°C 98% 1.2 mph SE1.9 kmh SE 9.0 mph14.5 kmh 29.86 in1011.2 mb 0.00 in0.0 mm 0.00 in0.0 mm 0.00 in0.0 mm
01:04 AM 69.9°F21.1°C 69.3°F20.7°C 98% 2.5 mph S4.0 kmh S 8.0 mph12.9 kmh 29.86 in1011.2 mb 0.00 in0.0 mm 0.00 in0.0 mm 0.00 in0.0 mm
01:09 AM 69.7°F20.9°C 69.1°F20.6°C 98% 1.7 mph SE2.7 kmh SE 5.0 mph8.0 kmh 29.86 in1011.2 mb 0.00 in0.0 mm 0.00 in0.0 mm 0.00 in0.0 mm
01:14 AM 69.7°F20.9°C 69.1°F20.6°C 98% 2.2 mph SE3.5 kmh SE 5.0 mph8.0 kmh 29.85 in1010.8 mb 0.00 in0.0 mm 0.00 in0.0 mm 0.00 in0.0 mm
01:19 AM 69.7°F20.9°C 69.1°F20.6°C 98% 1.7 mph SE2.7 kmh SE 5.0 mph8.0 kmh 29.86 in1011.2 mb 0.00 in0.0 mm 0.00 in0.0 mm 0.00 in0.0 mm
01:24 AM 69.6°F20.9°C 69.0°F20.6°C 98% 2.0 mph SE3.2 kmh SE 6.0 mph9.7 kmh 29.86 in1011.2 mb 0.00 in0.0 mm 0.00 in0.0 mm 0.00 in0.0 mm
01:29 AM 69.6°F20.9°C 69.0°F20.6°C 98% 3.3 mph SE5.3 kmh SE 7.0 mph11.3 kmh 29.86 in1011.2 mb 0.00 in0.0 mm 0.00 in0.0 mm 0.00 in0.0 mm
01:34 AM 69.5°F20.8°C 68.9°F20.5°C 98% 4.0 mph SE6.4 kmh SE 8.0 mph12.9 kmh 29.86 in1011.2 mb 0.00 in0.0 mm 0.00 in0.0 mm 0.00 in0.0 mm
01:39 AM 69.5°F20.8°C 68.9°F20.5°C 98% 2.6 mph SE4.2 kmh SE 8.0 mph12.9 kmh 29.86 in1011.2 mb 0.00 in0.0 mm 0.00 in0.0 mm 0.00 in0.0 mm
01:44 AM 69.5°F20.8°C 68.9°F20.5°C 98% 2.8 mph SE4.5 kmh SE 8.0 mph12.9 kmh 29.85 in1010.8 mb 0.00 in0.0 mm 0.00 in0.0 mm 0.00 in0.0 mm
01:49 AM 69.5°F20.8°C 68.9°F20.5°C 98% 3.5 mph SE5.6 kmh SE 7.0 mph11.3 kmh 29.85 in1010.8 mb 0.00 in0.0 mm 0.00 in0.0 mm 0.00 in0.0 mm
01:54 AM 69.4°F20.8°C 68.8°F20.4°C 98% 2.0 mph SE3.2 kmh SE 6.0 mph9.7 kmh 29.85 in1010.8 mb 0.00 in0.0 mm 0.00 in0.0 mm 0.00 in0.0 mm
02:00 AM 69.4°F20.8°C 68.8°F20.4°C 98% 2.2 mph SE3.5 kmh SE 6.0 mph9.7 kmh 29.85 in1010.8 mb 0.00 in0.0 mm 0.00 in0.0 mm 0.00 in0.0 mm
02:05 AM 69.4°F20.8°C 68.8°F20.4°C 98% 1.9 mph SE3.1 kmh SE 6.0 mph9.7 kmh 29.85 in1010.8 mb 0.00 in0.0 mm 0.00 in0.0 mm 0.00 in0.0 mm
02:10 AM 69.4°F20.8°C 68.8°F20.4°C 98% 1.7 mph SE2.7 kmh SE 5.0 mph8.0 kmh 29.85 in1010.8 mb 0.00 in0.0 mm 0.00 in0.0 mm 0.00 in0.0 mm
02:14 AM 69.4°F20.8°C 68.8°F20.4°C 98% 1.4 mph SE2.3 kmh SE 5.0 mph8.0 kmh 29.85 in1010.8 mb 0.00 in0.0 mm 0.00 in0.0 mm 0.00 in0.0 mm
02:20 AM 69.4°F20.8°C 68.8°F20.4°C 98% 1.5 mph SE2.4 kmh SE 4.0 mph6.4 kmh 29.85 in1010.8 mb 0.00 in0.0 mm 0.00 in0.0 mm 0.00 in0.0 mm
02:25 AM 69.4°F20.8°C 68.8°F20.4°C 98% 1.3 mph SE2.1 kmh SE 3.0 mph4.8 kmh 29.86 in1011.2 mb 0.00 in0.0 mm 0.00 in0.0 mm 0.00 in0.0 mm
02:30 AM 69.4°F20.8°C 68.8°F20.4°C 98% 1.0 mph SE1.6 kmh SE 3.0 mph4.8 kmh 29.86 in1011.2 mb 0.00 in0.0 mm 0.00 in0.0 mm 0.00 in0.0 mm
02:35 AM 69.4°F20.8°C 68.8°F20.4°C 98% 1.8 mph SE2.9 kmh SE 3.0 mph4.8 kmh 29.86 in1011.2 mb 0.00 in0.0 mm 0.00 in0.0 mm 0.00 in0.0 mm
02:40 AM 69.4°F20.8°C 68.8°F20.4°C 98% 1.3 mph SE2.1 kmh SE 3.0 mph4.8 kmh 29.86 in1011.2 mb 0.00 in0.0 mm 0.00 in0.0 mm 0.00 in0.0 mm
02:45 AM 69.4°F20.8°C 68.8°F20.4°C 98% 2.4 mph SE3.9 kmh SE 3.0 mph4.8 kmh 29.86 in1011.2 mb 0.00 in0.0 mm 0.00 in0.0 mm 0.00 in0.0 mm
02:50 AM 69.4°F20.8°C 68.8°F20.4°C 98% 1.5 mph SE2.4 kmh SE 3.0 mph4.8 kmh 29.86 in1011.2 mb 0.00 in0.0 mm 0.00 in0.0 mm 0.00 in0.0 mm
02:55 AM 69.4°F20.8°C 68.8°F20.4°C 98% 1.6 mph SE2.6 kmh SE 3.0 mph4.8 kmh 29.86 in1011.2 mb 0.00 in0.0 mm 0.00 in0.0 mm 0.00 in0.0 mm
03:00 AM 69.4°F20.8°C 68.8°F20.4°C 98% 1.6 mph SE2.6 kmh SE 3.0 mph4.8 kmh 29.85 in1010.8 mb 0.00 in0.0 mm 0.00 in0.0 mm 0.00 in0.0 mm
03:05 AM 69.4°F20.8°C 68.8°F20.4°C 98% 1.7 mph SE2.7 kmh SE 4.0 mph6.4 kmh 29.85 in1010.8 mb 0.00 in0.0 mm 0.00 in0.0 mm 0.00 in0.0 mm
03:10 AM 69.5°F20.8°C 68.9°F20.5°C 98% 2.0 mph SE3.2 kmh SE 5.0 mph8.0 kmh 29.85 in1010.8 mb 0.00 in0.0 mm 0.00 in0.0 mm 0.00 in0.0 mm
03:15 AM 69.5°F20.8°C 68.9°F20.5°C 98% 1.1 mph SE1.8 kmh SE 5.0 mph8.0 kmh 29.85 in1010.8 mb 0.00 in0.0 mm 0.00 in0.0 mm 0.00 in0.0 mm
03:20 AM 69.5°F20.8°C 68.9°F20.5°C 98% 1.4 mph SE2.3 kmh SE 5.0 mph8.0 kmh 29.84 in1010.5 mb 0.00 in0.0 mm 0.00 in0.0 mm 0.00 in0.0 mm
03:25 AM 69.5°F20.8°C 68.9°F20.5°C 98% 1.0 mph SE1.6 kmh SE 5.0 mph8.0 kmh 29.84 in1010.5 mb 0.00 in0.0 mm 0.00 in0.0 mm 0.00 in0.0 mm
03:30 AM 69.5°F20.8°C 68.9°F20.5°C 98% 1.2 mph SE1.9 kmh SE 3.0 mph4.8 kmh 29.84 in1010.5 mb 0.00 in0.0 mm 0.00 in0.0 mm 0.00 in0.0 mm
03:35 AM 69.5°F20.8°C 68.9°F20.5°C 98% 1.5 mph SSW2.4 kmh SSW 4.0 mph6.4 kmh 29.85 in1010.8 mb 0.00 in0.0 mm 0.00 in0.0 mm 0.00 in0.0 mm
03:40 AM 69.5°F20.8°C 68.9°F20.5°C 98% 1.5 mph SSE2.4 kmh SSE 4.0 mph6.4 kmh 29.85 in1010.8 mb 0.00 in0.0 mm 0.00 in0.0 mm 0.00 in0.0 mm
03:45 AM 69.5°F20.8°C 68.9°F20.5°C 98% 1.0 mph SE1.6 kmh SE 4.0 mph6.4 kmh 29.85 in1010.8 mb 0.00 in0.0 mm 0.00 in0.0 mm 0.00 in0.0 mm
03:50 AM 69.5°F20.8°C 68.9°F20.5°C 98% 1.0 mph SSE1.6 kmh SSE 4.0 mph6.4 kmh 29.85 in1010.8 mb 0.00 in0.0 mm 0.00 in0.0 mm 0.00 in0.0 mm
03:55 AM 69.5°F20.8°C 68.9°F20.5°C 98% 1.8 mph SE2.9 kmh SE 5.0 mph8.0 kmh 29.85 in1010.8 mb 0.00 in0.0 mm 0.00 in0.0 mm 0.00 in0.0 mm
04:00 AM 69.5°F20.8°C 68.9°F20.5°C 98% 1.9 mph SE3.1 kmh SE 6.0 mph9.7 kmh 29.85 in1010.8 mb 0.00 in0.0 mm 0.00 in0.0 mm 0.00 in0.0 mm
04:05 AM 69.5°F20.8°C 68.9°F20.5°C 98% 1.4 mph SE2.3 kmh SE 6.0 mph9.7 kmh 29.86 in1011.2 mb 0.00 in0.0 mm 0.00 in0.0 mm 0.00 in0.0 mm
04:10 AM 69.5°F20.8°C 68.9°F20.5°C 98% 2.4 mph SSW3.9 kmh SSW 6.0 mph9.7 kmh 29.85 in1010.8 mb 0.00 in0.0 mm 0.00 in0.0 mm 0.00 in0.0 mm
04:15 AM 69.5°F20.8°C 68.9°F20.5°C 98% 1.7 mph SSE2.7 kmh SSE 6.0 mph9.7 kmh 29.85 in1010.8 mb 0.00 in0.0 mm 0.00 in0.0 mm 0.00 in0.0 mm
04:20 AM 69.5°F20.8°C 68.9°F20.5°C 98% 2.2 mph S3.5 kmh S 6.0 mph9.7 kmh 29.85 in1010.8 mb 0.00 in0.0 mm 0.00 in0.0 mm 0.00 in0.0 mm
04:25 AM 69.5°F20.8°C 68.9°F20.5°C 98% 1.0 mph S1.6 kmh S 6.0 mph9.7 kmh 29.85 in1010.8 mb 0.01 in0.3 mm 0.12 in3.0 mm 0.01 in0.3 mm
04:30 AM 69.4°F20.8°C 68.8°F20.4°C 98% 1.0 mph S1.6 kmh S 4.0 mph6.4 kmh 29.85 in1010.8 mb 0.02 in0.5 mm 0.12 in3.0 mm 0.02 in0.5 mm
04:35 AM 69.4°F20.8°C 68.8°F20.4°C 98% 1.2 mph SE1.9 kmh SE 4.0 mph6.4 kmh 29.85 in1010.8 mb 0.02 in0.5 mm 0.00 in0.0 mm 0.02 in0.5 mm
04:40 AM 69.4°F20.8°C 68.8°F20.4°C 98% 1.7 mph SSW2.7 kmh SSW 3.0 mph4.8 kmh 29.85 in1010.8 mb 0.03 in0.8 mm 0.12 in3.0 mm 0.03 in0.8 mm
04:45 AM 69.4°F20.8°C 68.8°F20.4°C 98% 1.4 mph SSE2.3 kmh SSE 3.0 mph4.8 kmh 29.85 in1010.8 mb 0.04 in1.0 mm 0.12 in3.0 mm 0.04 in1.0 mm
04:50 AM 69.4°F20.8°C 68.8°F20.4°C 98% 1.4 mph SSW2.3 kmh SSW 3.0 mph4.8 kmh 29.85 in1010.8 mb 0.05 in1.3 mm 0.12 in3.0 mm 0.05 in1.3 mm
04:55 AM 69.3°F20.7°C 68.7°F20.4°C 98% 1.0 mph S1.6 kmh S 3.0 mph4.8 kmh 29.85 in1010.8 mb 0.06 in1.5 mm 0.12 in3.0 mm 0.06 in1.5 mm
05:00 AM 69.4°F20.8°C 68.8°F20.4°C 98% 1.1 mph SE1.8 kmh SE 3.0 mph4.8 kmh 29.85 in1010.8 mb 0.07 in1.8 mm 0.01 in0.3 mm 0.07 in1.8 mm
05:05 AM 69.3°F20.7°C 68.7°F20.4°C 98% 2.4 mph SE3.9 kmh SE 5.0 mph8.0 kmh 29.84 in1010.5 mb 0.08 in2.0 mm 0.12 in3.0 mm 0.08 in2.0 mm
05:10 AM 69.3°F20.7°C 68.7°F20.4°C 98% 1.2 mph SE1.9 kmh SE 5.0 mph8.0 kmh 29.84 in1010.5 mb 0.09 in2.3 mm 0.12 in3.0 mm 0.09 in2.3 mm
05:14 AM 69.3°F20.7°C 68.7°F20.4°C 98% 1.4 mph SW2.3 kmh SW 5.0 mph8.0 kmh 29.84 in1010.5 mb 0.10 in2.5 mm 0.15 in3.8 mm 0.10 in2.5 mm
05:19 AM 69.2°F20.7°C 68.6°F20.3°C 98% 2.0 mph SSE3.2 kmh SSE 5.0 mph8.0 kmh 29.84 in1010.5 mb 0.12 in3.0 mm 0.24 in6.1 mm 0.12 in3.0 mm
05:24 AM 69.1°F20.6°C 68.5°F20.3°C 98% 1.0 mph SW1.6 kmh SW 4.0 mph6.4 kmh 29.85 in1010.8 mb 0.12 in3.0 mm 0.00 in0.0 mm 0.13 in3.3 mm
05:29 AM 69.0°F20.6°C 68.4°F20.2°C 98% 1.0 mph SE1.6 kmh SE 4.0 mph6.4 kmh 29.84 in1010.5 mb 0.11 in2.8 mm 0.00 in0.0 mm 0.13 in3.3 mm
05:34 AM 69.0°F20.6°C 68.4°F20.2°C 98% 1.0 mph E1.6 kmh E 4.0 mph6.4 kmh 29.84 in1010.5 mb 0.11 in2.8 mm 0.00 in0.0 mm 0.13 in3.3 mm
05:39 AM 69.0°F20.6°C 68.4°F20.2°C 98% 1.0 mph ESE1.6 kmh ESE 3.0 mph4.8 kmh 29.84 in1010.5 mb 0.10 in2.5 mm 0.00 in0.0 mm 0.13 in3.3 mm
05:44 AM 69.0°F20.6°C 68.4°F20.2°C 98% 1.4 mph SE2.3 kmh SE 3.0 mph4.8 kmh 29.84 in1010.5 mb 0.09 in2.3 mm 0.00 in0.0 mm 0.13 in3.3 mm
05:49 AM 69.0°F20.6°C 68.4°F20.2°C 98% 1.7 mph SE2.7 kmh SE 3.0 mph4.8 kmh 29.84 in1010.5 mb 0.08 in2.0 mm 0.00 in0.0 mm 0.13 in3.3 mm
05:54 AM 68.9°F20.5°C 68.3°F20.2°C 98% 1.0 mph ESE1.6 kmh ESE 3.0 mph4.8 kmh 29.84 in1010.5 mb 0.07 in1.8 mm 0.00 in0.0 mm 0.13 in3.3 mm
05:59 AM 69.0°F20.6°C 68.4°F20.2°C 98% 1.0 mph SE1.6 kmh SE 3.0 mph4.8 kmh 29.84 in1010.5 mb 0.06 in1.5 mm 0.00 in0.0 mm 0.13 in3.3 mm
06:04 AM 69.0°F20.6°C 68.4°F20.2°C 98% Calm Calm 3.0 mph4.8 kmh 29.84 in1010.5 mb 0.05 in1.3 mm 0.00 in0.0 mm 0.13 in3.3 mm
06:09 AM 68.9°F20.5°C 68.3°F20.2°C 98% 1.6 mph SE2.6 kmh SE 3.0 mph4.8 kmh 29.84 in1010.5 mb 0.04 in1.0 mm 0.00 in0.0 mm 0.13 in3.3 mm
06:14 AM 68.9°F20.5°C 68.3°F20.2°C 98% 1.0 mph SE1.6 kmh SE 4.0 mph6.4 kmh 29.85 in1010.8 mb 0.03 in0.8 mm 0.00 in0.0 mm 0.13 in3.3 mm
06:19 AM 69.0°F20.6°C 68.4°F20.2°C 98% 1.0 mph E1.6 kmh E 4.0 mph6.4 kmh 29.85 in1010.8 mb 0.01 in0.3 mm 0.00 in0.0 mm 0.13 in3.3 mm
06:24 AM 69.0°F20.6°C 68.4°F20.2°C 98% 1.1 mph ESE1.8 kmh ESE 4.0 mph6.4 kmh 29.85 in1010.8 mb 0.00 in0.0 mm 0.00 in0.0 mm 0.13 in3.3 mm
06:29 AM 69.0°F20.6°C 68.4°F20.2°C 98% 1.2 mph SE1.9 kmh SE 2.0 mph3.2 kmh 29.85 in1010.8 mb 0.00 in0.0 mm 0.00 in0.0 mm 0.13 in3.3 mm
06:34 AM 69.0°F20.6°C 68.4°F20.2°C 98% 1.7 mph SE2.7 kmh SE 3.0 mph4.8 kmh 29.85 in1010.8 mb 0.00 in0.0 mm 0.00 in0.0 mm 0.13 in3.3 mm
06:39 AM 69.0°F20.6°C 68.4°F20.2°C 98% 1.0 mph SE1.6 kmh SE 3.0 mph4.8 kmh 29.85 in1010.8 mb 0.00 in0.0 mm 0.00 in0.0 mm 0.13 in3.3 mm
06:44 AM 69.0°F20.6°C 68.4°F20.2°C 98% 1.0 mph ESE1.6 kmh ESE 3.0 mph4.8 kmh 29.86 in1011.2 mb 0.00 in0.0 mm 0.00 in0.0 mm 0.13 in3.3 mm
06:49 AM 69.0°F20.6°C 68.4°F20.2°C 98% 1.0 mph SE1.6 kmh SE 3.0 mph4.8 kmh 29.86 in1011.2 mb 0.00 in0.0 mm 0.00 in0.0 mm 0.13 in3.3 mm
06:54 AM 69.1°F20.6°C 68.8°F20.4°C 99% 1.4 mph ESE2.3 kmh ESE 3.0 mph4.8 kmh 29.86 in1011.2 mb 0.00 in0.0 mm 0.00 in0.0 mm 0.13 in3.3 mm
06:59 AM 69.1°F20.6°C 68.8°F20.4°C 99% 1.7 mph SE2.7 kmh SE 3.0 mph4.8 kmh 29.86 in1011.2 mb 0.00 in0.0 mm 0.00 in0.0 mm 0.13 in3.3 mm
07:04 AM 69.1°F20.6°C 68.8°F20.4°C 99% 2.7 mph E4.3 kmh E 3.0 mph4.8 kmh 29.87 in1011.5 mb 0.00 in0.0 mm 0.00 in0.0 mm 0.13 in3.3 mm
07:09 AM 69.2°F20.7°C 68.9°F20.5°C 99% 1.1 mph SE1.8 kmh SE 3.0 mph4.8 kmh 29.87 in1011.5 mb 0.00 in0.0 mm 0.00 in0.0 mm 0.13 in3.3 mm
07:14 AM 69.2°F20.7°C 68.9°F20.5°C 99% 1.4 mph E2.3 kmh E 3.0 mph4.8 kmh 29.87 in1011.5 mb 0.00 in0.0 mm 0.00 in0.0 mm 0.13 in3.3 mm
07:19 AM 69.2°F20.7°C 68.9°F20.5°C 99% Calm Calm 3.0 mph4.8 kmh 29.87 in1011.5 mb 0.00 in0.0 mm 0.00 in0.0 mm 0.13 in3.3 mm
07:24 AM 69.2°F20.7°C 68.9°F20.5°C 99% 1.3 mph ESE2.1 kmh ESE 2.0 mph3.2 kmh 29.87 in1011.5 mb 0.00 in0.0 mm 0.00 in0.0 mm 0.13 in3.3 mm
07:29 AM 69.3°F20.7°C 69.0°F20.6°C 99% 1.0 mph E1.6 kmh E 3.0 mph4.8 kmh 29.87 in1011.5 mb 0.00 in0.0 mm 0.00 in0.0 mm 0.13 in3.3 mm
07:34 AM 69.3°F20.7°C 69.0°F20.6°C 99% 1.0 mph SE1.6 kmh SE 3.0 mph4.8 kmh 29.88 in1011.9 mb 0.00 in0.0 mm 0.00 in0.0 mm 0.13 in3.3 mm
07:39 AM 69.4°F20.8°C 69.1°F20.6°C 99% 1.0 mph SE1.6 kmh SE 3.0 mph4.8 kmh 29.88 in1011.9 mb 0.00 in0.0 mm 0.00 in0.0 mm 0.13 in3.3 mm
07:44 AM 69.4°F20.8°C 69.1°F20.6°C 99% 1.6 mph ESE2.6 kmh ESE 3.0 mph4.8 kmh 29.88 in1011.9 mb 0.00 in0.0 mm 0.00 in0.0 mm 0.13 in3.3 mm
07:49 AM 69.5°F20.8°C 69.2°F20.7°C 99% 1.0 mph E1.6 kmh E 3.0 mph4.8 kmh 29.88 in1011.9 mb 0.00 in0.0 mm 0.00 in0.0 mm 0.13 in3.3 mm
07:54 AM 69.6°F20.9°C 69.3°F20.7°C 99% 1.3 mph SE2.1 kmh SE 3.0 mph4.8 kmh 29.88 in1011.9 mb 0.00 in0.0 mm 0.00 in0.0 mm 0.13 in3.3 mm
07:59 AM 69.6°F20.9°C 69.3°F20.7°C 99% 1.0 mph SE1.6 kmh SE 4.0 mph6.4 kmh 29.88 in1011.9 mb 0.00 in0.0 mm 0.00 in0.0 mm 0.13 in3.3 mm
08:04 AM 69.7°F20.9°C 69.4°F20.8°C 99% 1.3 mph SSW2.1 kmh SSW 4.0 mph6.4 kmh 29.88 in1011.9 mb 0.00 in0.0 mm 0.00 in0.0 mm 0.13 in3.3 mm
08:09 AM 69.7°F20.9°C 69.4°F20.8°C 99% 1.2 mph E1.9 kmh E 4.0 mph6.4 kmh 29.89 in1012.2 mb 0.00 in0.0 mm 0.00 in0.0 mm 0.13 in3.3 mm
08:14 AM 69.8°F21.0°C 69.5°F20.8°C 99% 1.9 mph SE3.1 kmh SE 3.0 mph4.8 kmh 29.89 in1012.2 mb 0.00 in0.0 mm 0.00 in0.0 mm 0.13 in3.3 mm
08:19 AM 69.8°F21.0°C 69.5°F20.8°C 99% 1.1 mph SE1.8 kmh SE 4.0 mph6.4 kmh 29.89 in1012.2 mb 0.00 in0.0 mm 0.00 in0.0 mm 0.13 in3.3 mm
08:24 AM 69.9°F21.1°C 69.6°F20.9°C 99% 1.2 mph ESE1.9 kmh ESE 4.0 mph6.4 kmh 29.89 in1012.2 mb 0.00 in0.0 mm 0.00 in0.0 mm 0.13 in3.3 mm
08:29 AM 69.9°F21.1°C 69.6°F20.9°C 99% 1.1 mph SE1.8 kmh SE 4.0 mph6.4 kmh 29.89 in1012.2 mb 0.00 in0.0 mm 0.00 in0.0 mm 0.13 in3.3 mm
08:34 AM 70.0°F21.1°C 69.7°F20.9°C 99% 1.9 mph ESE3.1 kmh ESE 4.0 mph6.4 kmh 29.89 in1012.2 mb 0.00 in0.0 mm 0.00 in0.0 mm 0.13 in3.3 mm
08:39 AM 70.1°F21.2°C 69.8°F21.0°C 99% 1.4 mph ESE2.3 kmh ESE 4.0 mph6.4 kmh 29.89 in1012.2 mb 0.00 in0.0 mm 0.00 in0.0 mm 0.13 in3.3 mm
08:44 AM 70.2°F21.2°C 69.9°F21.1°C 99% 1.6 mph SE2.6 kmh SE 4.0 mph6.4 kmh 29.89 in1012.2 mb 0.00 in0.0 mm 0.00 in0.0 mm 0.13 in3.3 mm
08:49 AM 70.3°F21.3°C 70.0°F21.1°C 99% 1.3 mph SE2.1 kmh SE 4.0 mph6.4 kmh 29.89 in1012.2 mb 0.00 in0.0 mm 0.00 in0.0 mm 0.13 in3.3 mm
08:54 AM 70.5°F21.4°C 70.2°F21.2°C 99% 1.2 mph SE1.9 kmh SE 4.0 mph6.4 kmh 29.89 in1012.2 mb 0.00 in0.0 mm 0.00 in0.0 mm 0.13 in3.3 mm
08:59 AM 70.6°F21.4°C 70.3°F21.3°C 99% 1.1 mph SE1.8 kmh SE 4.0 mph6.4 kmh 29.90 in1012.5 mb 0.00 in0.0 mm 0.00 in0.0 mm 0.13 in3.3 mm
09:04 AM 70.7°F21.5°C 70.4°F21.3°C 99% 1.5 mph SE2.4 kmh SE 3.0 mph4.8 kmh 29.90 in1012.5 mb 0.00 in0.0 mm 0.00 in0.0 mm 0.13 in3.3 mm
09:09 AM 70.9°F21.6°C 70.6°F21.4°C 99% Calm Calm 4.0 mph6.4 kmh 29.90 in1012.5 mb 0.00 in0.0 mm 0.00 in0.0 mm 0.13 in3.3 mm
09:14 AM 71.1°F21.7°C 70.8°F21.6°C 99% 2.2 mph SE3.5 kmh SE 5.0 mph8.0 kmh 29.90 in1012.5 mb 0.00 in0.0 mm 0.00 in0.0 mm 0.13 in3.3 mm
09:19 AM 71.5°F21.9°C 71.2°F21.8°C 99% 1.0 mph E1.6 kmh E 5.0 mph8.0 kmh 29.90 in1012.5 mb 0.00 in0.0 mm 0.00 in0.0 mm 0.13 in3.3 mm
09:24 AM 71.7°F22.1°C 71.4°F21.9°C 99% 1.1 mph SE1.8 kmh SE 5.0 mph8.0 kmh 29.90 in1012.5 mb 0.00 in0.0 mm 0.00 in0.0 mm 0.13 in3.3 mm
09:29 AM 71.6°F22.0°C 71.0°F21.7°C 98% 1.4 mph SE2.3 kmh SE 5.0 mph8.0 kmh 29.89 in1012.2 mb 0.00 in0.0 mm 0.00 in0.0 mm 0.13 in3.3 mm
09:34 AM 71.6°F22.0°C 71.0°F21.7°C 98% 2.6 mph SE4.2 kmh SE 7.0 mph11.3 kmh 29.89 in1012.2 mb 0.00 in0.0 mm 0.00 in0.0 mm 0.13 in3.3 mm
09:39 AM 71.9°F22.2°C 71.3°F21.8°C 98% 2.3 mph SE3.7 kmh SE 7.0 mph11.3 kmh 29.89 in1012.2 mb 0.00 in0.0 mm 0.00 in0.0 mm 0.13 in3.3 mm
09:44 AM 72.0°F22.2°C 71.4°F21.9°C 98% 1.9 mph SE3.1 kmh SE 7.0 mph11.3 kmh 29.90 in1012.5 mb 0.00 in0.0 mm 0.00 in0.0 mm 0.13 in3.3 mm
09:49 AM 72.0°F22.2°C 71.4°F21.9°C 98% 2.4 mph SE3.9 kmh SE 7.0 mph11.3 kmh 29.90 in1012.5 mb 0.00 in0.0 mm 0.00 in0.0 mm 0.13 in3.3 mm
09:54 AM 71.9°F22.2°C 71.3°F21.8°C 98% 2.5 mph SSE4.0 kmh SSE 6.0 mph9.7 kmh 29.90 in1012.5 mb 0.00 in0.0 mm 0.00 in0.0 mm 0.13 in3.3 mm
09:59 AM 72.0°F22.2°C 71.4°F21.9°C 98% 1.0 mph SE1.6 kmh SE 5.0 mph8.0 kmh 29.90 in1012.5 mb 0.00 in0.0 mm 0.00 in0.0 mm 0.13 in3.3 mm
10:04 AM 72.0°F22.2°C 71.4°F21.9°C 98% 1.3 mph SE2.1 kmh SE 5.0 mph8.0 kmh 29.90 in1012.5 mb 0.00 in0.0 mm 0.00 in0.0 mm 0.13 in3.3 mm
10:09 AM 72.0°F22.2°C 71.4°F21.9°C 98% 1.3 mph SSE2.1 kmh SSE 4.0 mph6.4 kmh 29.90 in1012.5 mb 0.01 in0.3 mm 0.12 in3.0 mm 0.14 in3.6 mm
10:14 AM 72.0°F22.2°C 71.4°F21.9°C 98% 1.0 mph SE1.6 kmh SE 5.0 mph8.0 kmh 29.90 in1012.5 mb 0.01 in0.3 mm 0.00 in0.0 mm 0.14 in3.6 mm
10:19 AM 72.0°F22.2°C 71.4°F21.9°C 98% 2.0 mph SSE3.2 kmh SSE 5.0 mph8.0 kmh 29.90 in1012.5 mb 0.01 in0.3 mm 0.00 in0.0 mm 0.14 in3.6 mm
10:24 AM 72.1°F22.3°C 71.5°F21.9°C 98% 1.0 mph SSE1.6 kmh SSE 5.0 mph8.0 kmh 29.90 in1012.5 mb 0.01 in0.3 mm 0.00 in0.0 mm 0.14 in3.6 mm
10:29 AM 72.0°F22.2°C 71.4°F21.9°C 98% 1.8 mph SE2.9 kmh SE 3.0 mph4.8 kmh 29.90 in1012.5 mb 0.01 in0.3 mm 0.00 in0.0 mm 0.14 in3.6 mm
10:34 AM 72.0°F22.2°C 71.4°F21.9°C 98% 1.3 mph S2.1 kmh S 3.0 mph4.8 kmh 29.91 in1012.9 mb 0.02 in0.5 mm 0.12 in3.0 mm 0.15 in3.8 mm
10:39 AM 72.0°F22.2°C 71.4°F21.9°C 98% 1.4 mph SE2.3 kmh SE 3.0 mph4.8 kmh 29.91 in1012.9 mb 0.02 in0.5 mm 0.00 in0.0 mm 0.15 in3.8 mm
10:44 AM 72.0°F22.2°C 71.4°F21.9°C 98% 1.7 mph S2.7 kmh S 3.0 mph4.8 kmh 29.91 in1012.9 mb 0.03 in0.8 mm 0.12 in3.0 mm 0.16 in4.1 mm
10:49 AM 71.9°F22.2°C 71.3°F21.8°C 98% 2.8 mph S4.5 kmh S 8.0 mph12.9 kmh 29.91 in1012.9 mb 0.04 in1.0 mm 0.12 in3.0 mm 0.17 in4.3 mm
10:54 AM 71.9°F22.2°C 71.3°F21.8°C 98% 2.0 mph SSW3.2 kmh SSW 8.0 mph12.9 kmh 29.91 in1012.9 mb 0.04 in1.0 mm 0.00 in0.0 mm 0.17 in4.3 mm
10:59 AM 71.8°F22.1°C 71.2°F21.8°C 98% 1.5 mph SSW2.4 kmh SSW 9.0 mph14.5 kmh 29.90 in1012.5 mb 0.04 in1.0 mm 0.00 in0.0 mm 0.17 in4.3 mm
11:04 AM 71.8°F22.1°C 71.2°F21.8°C 98% 3.8 mph S6.1 kmh S 9.0 mph14.5 kmh 29.90 in1012.5 mb 0.05 in1.3 mm 0.01 in0.3 mm 0.18 in4.6 mm
11:09 AM 71.8°F22.1°C 71.2°F21.8°C 98% 3.2 mph S5.1 kmh S 9.0 mph14.5 kmh 29.90 in1012.5 mb 0.04 in1.0 mm 0.00 in0.0 mm 0.18 in4.6 mm
11:13 AM 71.6°F22.0°C 71.0°F21.7°C 98% 2.1 mph SSW3.4 kmh SSW 9.0 mph14.5 kmh 29.89 in1012.2 mb 0.04 in1.0 mm 0.00 in0.0 mm 0.18 in4.6 mm
11:18 AM 71.5°F21.9°C 70.6°F21.4°C 97% 2.4 mph SW3.9 kmh SW 9.0 mph14.5 kmh 29.90 in1012.5 mb 0.04 in1.0 mm 0.00 in0.0 mm 0.18 in4.6 mm
11:23 AM 71.5°F21.9°C 70.9°F21.6°C 98% 1.5 mph SW2.4 kmh SW 9.0 mph14.5 kmh 29.90 in1012.5 mb 0.04 in1.0 mm 0.00 in0.0 mm 0.18 in4.6 mm
11:28 AM 71.6°F22.0°C 71.0°F21.7°C 98% 1.1 mph SW1.8 kmh SW 7.0 mph11.3 kmh 29.89 in1012.2 mb 0.04 in1.0 mm 0.00 in0.0 mm 0.18 in4.6 mm
11:33 AM 71.5°F21.9°C 70.9°F21.6°C 98% 1.4 mph S2.3 kmh S 7.0 mph11.3 kmh 29.89 in1012.2 mb 0.04 in1.0 mm 0.00 in0.0 mm 0.18 in4.6 mm
11:38 AM 71.4°F21.9°C 70.5°F21.4°C 97% 2.5 mph SSW4.0 kmh SSW 6.0 mph9.7 kmh 29.89 in1012.2 mb 0.04 in1.0 mm 0.00 in0.0 mm 0.19 in4.8 mm
11:43 AM 71.1°F21.7°C 70.2°F21.2°C 97% 2.2 mph SSW3.5 kmh SSW 8.0 mph12.9 kmh 29.89 in1012.2 mb 0.03 in0.8 mm 0.00 in0.0 mm 0.19 in4.8 mm
11:48 AM 71.1°F21.7°C 70.2°F21.2°C 97% 2.4 mph SSW3.9 kmh SSW 8.0 mph12.9 kmh 29.89 in1012.2 mb 0.03 in0.8 mm 0.00 in0.0 mm 0.20 in5.1 mm
11:53 AM 71.1°F21.7°C 70.2°F21.2°C 97% 2.8 mph SW4.5 kmh SW 8.0 mph12.9 kmh 29.88 in1011.9 mb 0.04 in1.0 mm 0.12 in3.0 mm 0.21 in5.3 mm
11:58 AM 71.1°F21.7°C 70.2°F21.2°C 97% 2.2 mph S3.5 kmh S 8.0 mph12.9 kmh 29.88 in1011.9 mb 0.05 in1.3 mm 0.12 in3.0 mm 0.22 in5.6 mm
12:03 PM 71.1°F21.7°C 70.2°F21.2°C 97% 2.5 mph SSW4.0 kmh SSW 8.0 mph12.9 kmh 29.88 in1011.9 mb 0.05 in1.3 mm 0.00 in0.0 mm 0.23 in5.8 mm
12:08 PM 71.2°F21.8°C 70.3°F21.3°C 97% 1.3 mph SW2.1 kmh SW 8.0 mph12.9 kmh 29.88 in1011.9 mb 0.07 in1.8 mm 0.24 in6.1 mm 0.25 in6.4 mm
12:13 PM 71.3°F21.8°C 70.4°F21.3°C 97% 1.3 mph S2.1 kmh S 7.0 mph11.3 kmh 29.88 in1011.9 mb 0.08 in2.0 mm 0.12 in3.0 mm 0.26 in6.6 mm
12:18 PM 71.4°F21.9°C 70.5°F21.4°C 97% Calm Calm 7.0 mph11.3 kmh 29.89 in1012.2 mb 0.09 in2.3 mm 0.12 in3.0 mm 0.27 in6.9 mm
12:23 PM 71.6°F22.0°C 70.7°F21.5°C 97% 1.0 mph S1.6 kmh S 4.0 mph6.4 kmh 29.90 in1012.5 mb 0.10 in2.5 mm 0.12 in3.0 mm 0.28 in7.1 mm
12:28 PM 71.8°F22.1°C 70.9°F21.6°C 97% 1.0 mph WSW1.6 kmh WSW 4.0 mph6.4 kmh 29.90 in1012.5 mb 0.11 in2.8 mm 0.12 in3.0 mm 0.29 in7.4 mm
12:33 PM 72.0°F22.2°C 71.1°F21.7°C 97% 1.4 mph S2.3 kmh S 3.0 mph4.8 kmh 29.91 in1012.9 mb 0.11 in2.8 mm 0.00 in0.0 mm 0.29 in7.4 mm
12:38 PM 72.0°F22.2°C 71.1°F21.7°C 97% 1.1 mph SW1.8 kmh SW 5.0 mph8.0 kmh 29.91 in1012.9 mb 0.10 in2.5 mm 0.00 in0.0 mm 0.29 in7.4 mm
12:43 PM 71.8°F22.1°C 70.9°F21.6°C 97% 1.3 mph SSW2.1 kmh SSW 5.0 mph8.0 kmh 29.91 in1012.9 mb 0.10 in2.5 mm 0.00 in0.0 mm 0.29 in7.4 mm
12:48 PM 71.8°F22.1°C 70.6°F21.4°C 96% 1.2 mph SW1.9 kmh SW 5.0 mph8.0 kmh 29.91 in1012.9 mb 0.09 in2.3 mm 0.00 in0.0 mm 0.29 in7.4 mm
12:53 PM 71.9°F22.2°C 71.0°F21.7°C 97% 1.0 mph SW1.6 kmh SW 5.0 mph8.0 kmh 29.91 in1012.9 mb 0.08 in2.0 mm 0.00 in0.0 mm 0.29 in7.4 mm
12:58 PM 72.3°F22.4°C 71.4°F21.9°C 97% Calm Calm 3.0 mph4.8 kmh 29.91 in1012.9 mb 0.07 in1.8 mm 0.00 in0.0 mm 0.29 in7.4 mm
01:03 PM 72.6°F22.6°C 71.4°F21.9°C 96% 1.0 mph SE1.6 kmh SE 2.0 mph3.2 kmh 29.91 in1012.9 mb 0.06 in1.5 mm 0.00 in0.0 mm 0.29 in7.4 mm
01:08 PM 73.1°F22.8°C 71.9°F22.2°C 96% 1.0 mph WSW1.6 kmh WSW 2.0 mph3.2 kmh 29.91 in1012.9 mb 0.04 in1.0 mm 0.00 in0.0 mm 0.29 in7.4 mm
01:13 PM 73.6°F23.1°C 72.4°F22.4°C 96% Calm Calm 2.0 mph3.2 kmh 29.91 in1012.9 mb 0.03 in0.8 mm 0.00 in0.0 mm 0.29 in7.4 mm
01:18 PM 74.4°F23.6°C 72.8°F22.7°C 95% 1.0 mph ESE1.6 kmh ESE 2.0 mph3.2 kmh 29.90 in1012.5 mb 0.02 in0.5 mm 0.00 in0.0 mm 0.29 in7.4 mm
01:23 PM 74.9°F23.8°C 72.4°F22.4°C 92% 1.9 mph SSE3.1 kmh SSE 5.0 mph8.0 kmh 29.90 in1012.5 mb 0.01 in0.3 mm 0.00 in0.0 mm 0.29 in7.4 mm
01:28 PM 75.3°F24.1°C 72.8°F22.7°C 92% 1.0 mph SE1.6 kmh SE 5.0 mph8.0 kmh 29.90 in1012.5 mb 0.00 in0.0 mm 0.00 in0.0 mm 0.29 in7.4 mm
01:33 PM 75.6°F24.2°C 72.4°F22.4°C 90% 1.0 mph ESE1.6 kmh ESE 5.0 mph8.0 kmh 29.90 in1012.5 mb 0.00 in0.0 mm 0.00 in0.0 mm 0.29 in7.4 mm
01:38 PM 76.1°F24.5°C 72.9°F22.7°C 90% 1.1 mph S1.8 kmh S 5.0 mph8.0 kmh 29.89 in1012.2 mb 0.00 in0.0 mm 0.00 in0.0 mm 0.29 in7.4 mm
01:43 PM 76.6°F24.8°C 73.4°F23.0°C 90% Calm Calm 3.0 mph4.8 kmh 29.89 in1012.2 mb 0.00 in0.0 mm 0.00 in0.0 mm 0.29 in7.4 mm
01:48 PM 76.5°F24.7°C 72.4°F22.4°C 87% 1.6 mph ESE2.6 kmh ESE 3.0 mph4.8 kmh 29.88 in1011.9 mb 0.00 in0.0 mm 0.00 in0.0 mm 0.29 in7.4 mm
01:53 PM 76.8°F24.9°C 72.6°F22.6°C 87% 1.4 mph WSW2.3 kmh WSW 3.0 mph4.8 kmh 29.88 in1011.9 mb 0.00 in0.0 mm 0.00 in0.0 mm 0.29 in7.4 mm
01:58 PM 77.2°F25.1°C 73.0°F22.8°C 87% Calm Calm 3.0 mph4.8 kmh 29.88 in1011.9 mb 0.00 in0.0 mm 0.00 in0.0 mm 0.29 in7.4 mm
02:03 PM 78.1°F25.6°C 73.6°F23.1°C 86% 1.0 mph SW1.6 kmh SW 3.0 mph4.8 kmh 29.88 in1011.9 mb 0.00 in0.0 mm 0.00 in0.0 mm 0.29 in7.4 mm
02:08 PM 78.9°F26.1°C 73.7°F23.2°C 84% 1.2 mph SE1.9 kmh SE 2.0 mph3.2 kmh 29.88 in1011.9 mb 0.00 in0.0 mm 0.00 in0.0 mm 0.29 in7.4 mm
02:13 PM 78.9°F26.1°C 73.7°F23.2°C 84% 1.0 mph WSW1.6 kmh WSW 3.0 mph4.8 kmh 29.88 in1011.9 mb 0.00 in0.0 mm 0.00 in0.0 mm 0.29 in7.4 mm
02:18 PM 79.1°F26.2°C 73.6°F23.1°C 83% 2.3 mph SE3.7 kmh SE 5.0 mph8.0 kmh 29.88 in1011.9 mb 0.00 in0.0 mm 0.00 in0.0 mm 0.29 in7.4 mm
02:23 PM 79.2°F26.2°C 73.7°F23.2°C 83% 3.0 mph SE4.8 kmh SE 5.0 mph8.0 kmh 29.88 in1011.9 mb 0.00 in0.0 mm 0.00 in0.0 mm 0.29 in7.4 mm
02:28 PM 79.3°F26.3°C 73.4°F23.0°C 82% 2.4 mph SSE3.9 kmh SSE 6.0 mph9.7 kmh 29.88 in1011.9 mb 0.00 in0.0 mm 0.00 in0.0 mm 0.29 in7.4 mm
02:33 PM 79.4°F26.3°C 73.8°F23.2°C 83% 2.0 mph SE3.2 kmh SE 6.0 mph9.7 kmh 29.88 in1011.9 mb 0.00 in0.0 mm 0.00 in0.0 mm 0.29 in7.4 mm
02:38 PM 79.1°F26.2°C 73.2°F22.9°C 82% 1.8 mph SE2.9 kmh SE 6.0 mph9.7 kmh 29.88 in1011.9 mb 0.00 in0.0 mm 0.00 in0.0 mm 0.29 in7.4 mm
02:43 PM 78.9°F26.1°C 73.4°F23.0°C 83% 1.6 mph SE2.6 kmh SE 6.0 mph9.7 kmh 29.88 in1011.9 mb 0.00 in0.0 mm 0.00 in0.0 mm 0.29 in7.4 mm
02:48 PM 79.1°F26.2°C 73.6°F23.1°C 83% Calm Calm 5.0 mph8.0 kmh 29.88 in1011.9 mb 0.00 in0.0 mm 0.00 in0.0 mm 0.29 in7.4 mm
02:53 PM 79.1°F26.2°C 73.6°F23.1°C 83% 3.0 mph SE4.8 kmh SE 5.0 mph8.0 kmh 29.87 in1011.5 mb 0.00 in0.0 mm 0.00 in0.0 mm 0.29 in7.4 mm
02:58 PM 78.8°F26.0°C 73.2°F22.9°C 83% 3.5 mph E5.6 kmh E 6.0 mph9.7 kmh 29.87 in1011.5 mb 0.00 in0.0 mm 0.00 in0.0 mm 0.29 in7.4 mm
03:03 PM 78.5°F25.8°C 72.9°F22.7°C 83% 2.3 mph E3.7 kmh E 6.0 mph9.7 kmh 29.87 in1011.5 mb 0.00 in0.0 mm 0.00 in0.0 mm 0.29 in7.4 mm
03:08 PM 78.6°F25.9°C 73.4°F23.0°C 84% 1.3 mph SE2.1 kmh SE 6.0 mph9.7 kmh 29.87 in1011.5 mb 0.00 in0.0 mm 0.00 in0.0 mm 0.29 in7.4 mm
03:13 PM 79.0°F26.1°C 73.5°F23.1°C 83% 2.2 mph ESE3.5 kmh ESE 6.0 mph9.7 kmh 29.87 in1011.5 mb 0.00 in0.0 mm 0.00 in0.0 mm 0.29 in7.4 mm
03:18 PM 79.4°F26.3°C 73.5°F23.1°C 82% 1.6 mph SE2.6 kmh SE 5.0 mph8.0 kmh 29.87 in1011.5 mb 0.00 in0.0 mm 0.00 in0.0 mm 0.29 in7.4 mm
03:23 PM 80.0°F26.7°C 74.1°F23.4°C 82% 2.0 mph ESE3.2 kmh ESE 3.0 mph4.8 kmh 29.87 in1011.5 mb 0.00 in0.0 mm 0.00 in0.0 mm 0.29 in7.4 mm
03:28 PM 80.8°F27.1°C 74.0°F23.3°C 80% 2.1 mph SE3.4 kmh SE 6.0 mph9.7 kmh 29.88 in1011.9 mb 0.00 in0.0 mm 0.00 in0.0 mm 0.29 in7.4 mm
03:33 PM 81.0°F27.2°C 74.0°F23.3°C 79% 3.5 mph ESE5.6 kmh ESE 7.0 mph11.3 kmh 29.88 in1011.9 mb 0.00 in0.0 mm 0.00 in0.0 mm 0.29 in7.4 mm
03:38 PM 80.7°F27.1°C 74.0°F23.3°C 80% 3.3 mph ESE5.3 kmh ESE 9.0 mph14.5 kmh 29.88 in1011.9 mb 0.00 in0.0 mm 0.00 in0.0 mm 0.29 in7.4 mm
03:43 PM 80.8°F27.1°C 73.8°F23.2°C 79% 2.3 mph SE3.7 kmh SE 9.0 mph14.5 kmh 29.88 in1011.9 mb 0.00 in0.0 mm 0.00 in0.0 mm 0.29 in7.4 mm
03:48 PM 81.2°F27.3°C 73.5°F23.1°C 77% 2.3 mph SE3.7 kmh SE 9.0 mph14.5 kmh 29.88 in1011.9 mb 0.00 in0.0 mm 0.00 in0.0 mm 0.29 in7.4 mm
03:53 PM 81.0°F27.2°C 72.7°F22.6°C 76% 5.8 mph ESE9.3 kmh ESE 9.0 mph14.5 kmh 29.88 in1011.9 mb 0.00 in0.0 mm 0.00 in0.0 mm 0.29 in7.4 mm
03:58 PM 80.3°F26.8°C 73.7°F23.2°C 80% 2.6 mph SE4.2 kmh SE 9.0 mph14.5 kmh 29.88 in1011.9 mb 0.00 in0.0 mm 0.00 in0.0 mm 0.29 in7.4 mm
04:03 PM 80.3°F26.8°C 74.0°F23.3°C 81% 2.6 mph ESE4.2 kmh ESE 9.0 mph14.5 kmh 29.88 in1011.9 mb 0.00 in0.0 mm 0.00 in0.0 mm 0.29 in7.4 mm
04:08 PM 80.3°F26.8°C 74.0°F23.3°C 81% 3.2 mph SE5.1 kmh SE 9.0 mph14.5 kmh 29.88 in1011.9 mb 0.00 in0.0 mm 0.00 in0.0 mm 0.29 in7.4 mm
04:13 PM 79.5°F26.4°C 73.5°F23.1°C 82% 6.7 mph SE10.8 kmh SE 15.0 mph24.1 kmh 29.88 in1011.9 mb 0.00 in0.0 mm 0.00 in0.0 mm 0.29 in7.4 mm
04:18 PM 77.6°F25.3°C 73.4°F23.0°C 87% 6.2 mph SE10.0 kmh SE 15.0 mph24.1 kmh 29.89 in1012.2 mb 0.00 in0.0 mm 0.00 in0.0 mm 0.29 in7.4 mm
04:23 PM 76.4°F24.7°C 72.6°F22.6°C 88% 4.4 mph SE7.1 kmh SE 15.0 mph24.1 kmh 29.89 in1012.2 mb 0.00 in0.0 mm 0.00 in0.0 mm 0.29 in7.4 mm
04:28 PM 75.4°F24.1°C 71.9°F22.2°C 89% 4.3 mph SE6.9 kmh SE 15.0 mph24.1 kmh 29.89 in1012.2 mb 0.00 in0.0 mm 0.00 in0.0 mm 0.29 in7.4 mm
04:33 PM 74.7°F23.7°C 71.9°F22.2°C 91% 4.0 mph SE6.4 kmh SE 15.0 mph24.1 kmh 29.89 in1012.2 mb 0.02 in0.5 mm 0.24 in6.1 mm 0.32 in8.1 mm
04:38 PM 74.1°F23.4°C 71.6°F22.0°C 92% 3.5 mph SE5.6 kmh SE 11.0 mph17.7 kmh 29.88 in1011.9 mb 0.04 in1.0 mm 0.24 in6.1 mm 0.33 in8.4 mm
04:43 PM 73.8°F23.2°C 71.6°F22.0°C 93% 3.7 mph SE6.0 kmh SE 10.0 mph16.1 kmh 29.88 in1011.9 mb 0.04 in1.0 mm 0.00 in0.0 mm 0.33 in8.4 mm
04:48 PM 73.5°F23.1°C 71.3°F21.8°C 93% 4.4 mph SE7.1 kmh SE 10.0 mph16.1 kmh 29.87 in1011.5 mb 0.05 in1.3 mm 0.12 in3.0 mm 0.34 in8.6 mm
04:53 PM 73.2°F22.9°C 71.0°F21.7°C 93% 3.2 mph SE5.1 kmh SE 10.0 mph16.1 kmh 29.87 in1011.5 mb 0.05 in1.3 mm 0.00 in0.0 mm 0.34 in8.6 mm
04:58 PM 73.2°F22.9°C 71.1°F21.7°C 93% 2.1 mph ESE3.4 kmh ESE 8.0 mph12.9 kmh 29.86 in1011.2 mb 0.05 in1.3 mm 0.00 in0.0 mm 0.34 in8.6 mm
05:03 PM 73.2°F22.9°C 71.0°F21.7°C 93% 2.0 mph ESE3.2 kmh ESE 8.0 mph12.9 kmh 29.86 in1011.2 mb 0.05 in1.3 mm 0.00 in0.0 mm 0.34 in8.6 mm
05:08 PM 73.4°F23.0°C 71.5°F21.9°C 94% 1.0 mph SE1.6 kmh SE 6.0 mph9.7 kmh 29.86 in1011.2 mb 0.05 in1.3 mm 0.00 in0.0 mm 0.34 in8.6 mm
05:12 PM 73.7°F23.2°C 71.5°F21.9°C 93% 1.5 mph ESE2.4 kmh ESE 5.0 mph8.0 kmh 29.87 in1011.5 mb 0.05 in1.3 mm 0.00 in0.0 mm 0.34 in8.6 mm
05:17 PM 74.0°F23.3°C 71.8°F22.1°C 93% 1.3 mph SE2.1 kmh SE 4.0 mph6.4 kmh 29.87 in1011.5 mb 0.05 in1.3 mm 0.00 in0.0 mm 0.34 in8.6 mm
05:22 PM 74.1°F23.4°C 71.9°F22.2°C 93% 2.7 mph E4.3 kmh E 4.0 mph6.4 kmh 29.87 in1011.5 mb 0.05 in1.3 mm 0.00 in0.0 mm 0.34 in8.6 mm
05:27 PM 74.4°F23.6°C 72.2°F22.3°C 93% 1.5 mph ESE2.4 kmh ESE 4.0 mph6.4 kmh 29.87 in1011.5 mb 0.05 in1.3 mm 0.00 in0.0 mm 0.34 in8.6 mm
05:32 PM 74.7°F23.7°C 72.5°F22.5°C 93% 1.0 mph SE1.6 kmh SE 4.0 mph6.4 kmh 29.87 in1011.5 mb 0.04 in1.0 mm 0.00 in0.0 mm 0.34 in8.6 mm
05:37 PM 75.2°F24.0°C 73.0°F22.8°C 93% 1.1 mph ESE1.8 kmh ESE 4.0 mph6.4 kmh 29.87 in1011.5 mb 0.01 in0.3 mm 0.00 in0.0 mm 0.34 in8.6 mm
05:42 PM 75.5°F24.2°C 73.3°F22.9°C 93% 1.6 mph ESE2.6 kmh ESE 3.0 mph4.8 kmh 29.87 in1011.5 mb 0.01 in0.3 mm 0.00 in0.0 mm 0.34 in8.6 mm
05:47 PM 75.6°F24.2°C 73.1°F22.8°C 92% 1.5 mph SE2.4 kmh SE 3.0 mph4.8 kmh 29.87 in1011.5 mb 0.00 in0.0 mm 0.00 in0.0 mm 0.34 in8.6 mm
05:52 PM 75.5°F24.2°C 73.0°F22.8°C 92% 2.9 mph ESE4.7 kmh ESE 5.0 mph8.0 kmh 29.87 in1011.5 mb 0.00 in0.0 mm 0.00 in0.0 mm 0.34 in8.6 mm
05:57 PM 75.6°F24.2°C 73.1°F22.8°C 92% 1.8 mph ESE2.9 kmh ESE 6.0 mph9.7 kmh 29.87 in1011.5 mb 0.00 in0.0 mm 0.00 in0.0 mm 0.34 in8.6 mm
06:02 PM 75.5°F24.2°C 73.0°F22.8°C 92% 3.1 mph ESE5.0 kmh ESE 8.0 mph12.9 kmh 29.87 in1011.5 mb 0.00 in0.0 mm 0.00 in0.0 mm 0.34 in8.6 mm
06:07 PM 75.6°F24.2°C 73.4°F23.0°C 93% 2.5 mph ESE4.0 kmh ESE 8.0 mph12.9 kmh 29.87 in1011.5 mb 0.00 in0.0 mm 0.00 in0.0 mm 0.34 in8.6 mm
06:12 PM 75.6°F24.2°C 73.4°F23.0°C 93% 2.1 mph E3.4 kmh E 8.0 mph12.9 kmh 29.87 in1011.5 mb 0.00 in0.0 mm 0.00 in0.0 mm 0.34 in8.6 mm
06:17 PM 75.4°F24.1°C 72.9°F22.7°C 92% 4.3 mph E6.9 kmh E 8.0 mph12.9 kmh 29.88 in1011.9 mb 0.00 in0.0 mm 0.00 in0.0 mm 0.34 in8.6 mm
06:22 PM 75.5°F24.2°C 73.3°F22.9°C 93% 2.1 mph SE3.4 kmh SE 8.0 mph12.9 kmh 29.88 in1011.9 mb 0.00 in0.0 mm 0.00 in0.0 mm 0.34 in8.6 mm
06:27 PM 75.4°F24.1°C 73.2°F22.9°C 93% 1.0 mph E1.6 kmh E 8.0 mph12.9 kmh 29.88 in1011.9 mb 0.00 in0.0 mm 0.00 in0.0 mm 0.34 in8.6 mm
06:32 PM 75.3°F24.1°C 73.1°F22.8°C 93% 2.9 mph ESE4.7 kmh ESE 8.0 mph12.9 kmh 29.88 in1011.9 mb 0.00 in0.0 mm 0.00 in0.0 mm 0.34 in8.6 mm
06:37 PM 75.3°F24.1°C 73.1°F22.8°C 93% 2.8 mph SE4.5 kmh SE 6.0 mph9.7 kmh 29.88 in1011.9 mb 0.00 in0.0 mm 0.00 in0.0 mm 0.34 in8.6 mm
06:42 PM 75.3°F24.1°C 73.1°F22.8°C 93% 3.1 mph SE5.0 kmh SE 7.0 mph11.3 kmh 29.88 in1011.9 mb 0.00 in0.0 mm 0.00 in0.0 mm 0.34 in8.6 mm
06:47 PM 75.3°F24.1°C 73.1°F22.8°C 93% 2.0 mph SE3.2 kmh SE 7.0 mph11.3 kmh 29.88 in1011.9 mb 0.00 in0.0 mm 0.00 in0.0 mm 0.34 in8.6 mm
06:52 PM 75.2°F24.0°C 73.3°F22.9°C 94% 2.1 mph SE3.4 kmh SE 7.0 mph11.3 kmh 29.88 in1011.9 mb 0.00 in0.0 mm 0.00 in0.0 mm 0.34 in8.6 mm
06:57 PM 75.2°F24.0°C 73.3°F22.9°C 94% 1.8 mph SE2.9 kmh SE 7.0 mph11.3 kmh 29.88 in1011.9 mb 0.00 in0.0 mm 0.00 in0.0 mm 0.34 in8.6 mm
07:02 PM 75.2°F24.0°C 73.7°F23.2°C 95% 1.3 mph S2.1 kmh S 6.0 mph9.7 kmh 29.88 in1011.9 mb 0.00 in0.0 mm 0.00 in0.0 mm 0.34 in8.6 mm
07:07 PM 75.1°F23.9°C 73.6°F23.1°C 95% 1.0 mph SE1.6 kmh SE 6.0 mph9.7 kmh 29.89 in1012.2 mb 0.00 in0.0 mm 0.00 in0.0 mm 0.34 in8.6 mm
07:12 PM 75.1°F23.9°C 73.5°F23.1°C 95% 1.2 mph SSE1.9 kmh SSE 4.0 mph6.4 kmh 29.89 in1012.2 mb 0.00 in0.0 mm 0.00 in0.0 mm 0.34 in8.6 mm
07:17 PM 75.1°F23.9°C 73.5°F23.1°C 95% 1.0 mph WSW1.6 kmh WSW 4.0 mph6.4 kmh 29.89 in1012.2 mb 0.00 in0.0 mm 0.00 in0.0 mm 0.34 in8.6 mm
07:22 PM 75.0°F23.9°C 73.4°F23.0°C 95% 1.0 mph S1.6 kmh S 4.0 mph6.4 kmh 29.90 in1012.5 mb 0.00 in0.0 mm 0.00 in0.0 mm 0.34 in8.6 mm
07:27 PM 75.0°F23.9°C 73.4°F23.0°C 95% 1.0 mph SE1.6 kmh SE 4.0 mph6.4 kmh 29.89 in1012.2 mb 0.00 in0.0 mm 0.00 in0.0 mm 0.34 in8.6 mm
07:32 PM 75.0°F23.9°C 73.4°F23.0°C 95% 1.5 mph SSE2.4 kmh SSE 3.0 mph4.8 kmh 29.90 in1012.5 mb 0.00 in0.0 mm 0.00 in0.0 mm 0.34 in8.6 mm
07:37 PM 74.9°F23.8°C 73.4°F23.0°C 95% 1.4 mph S2.3 kmh S 5.0 mph8.0 kmh 29.90 in1012.5 mb 0.00 in0.0 mm 0.00 in0.0 mm 0.34 in8.6 mm
07:42 PM 74.8°F23.8°C 73.2°F22.9°C 95% 1.4 mph SE2.3 kmh SE 5.0 mph8.0 kmh 29.90 in1012.5 mb 0.00 in0.0 mm 0.00 in0.0 mm 0.34 in8.6 mm
07:47 PM 74.7°F23.7°C 73.1°F22.8°C 95% 2.1 mph SE3.4 kmh SE 5.0 mph8.0 kmh 29.90 in1012.5 mb 0.00 in0.0 mm 0.00 in0.0 mm 0.34 in8.6 mm
07:52 PM 74.6°F23.7°C 73.0°F22.8°C 95% 1.4 mph SSE2.3 kmh SSE 5.0 mph8.0 kmh 29.90 in1012.5 mb 0.00 in0.0 mm 0.00 in0.0 mm 0.34 in8.6 mm
07:57 PM 74.5°F23.6°C 72.9°F22.7°C 95% 2.1 mph SSE3.4 kmh SSE 4.0 mph6.4 kmh 29.91 in1012.9 mb 0.00 in0.0 mm 0.00 in0.0 mm 0.34 in8.6 mm
08:02 PM 74.5°F23.6°C 73.3°F22.9°C 96% 1.6 mph S2.6 kmh S 4.0 mph6.4 kmh 29.90 in1012.5 mb 0.00 in0.0 mm 0.00 in0.0 mm 0.34 in8.6 mm
08:07 PM 74.5°F23.6°C 73.3°F22.9°C 96% 1.8 mph SE2.9 kmh SE 4.0 mph6.4 kmh 29.90 in1012.5 mb 0.00 in0.0 mm 0.00 in0.0 mm 0.34 in8.6 mm
08:12 PM 74.3°F23.5°C 73.1°F22.8°C 96% 2.2 mph SE3.5 kmh SE 6.0 mph9.7 kmh 29.90 in1012.5 mb 0.00 in0.0 mm 0.00 in0.0 mm 0.34 in8.6 mm
08:17 PM 74.2°F23.4°C 73.0°F22.8°C 96% 1.6 mph SE2.6 kmh SE 6.0 mph9.7 kmh 29.90 in1012.5 mb 0.00 in0.0 mm 0.00 in0.0 mm 0.34 in8.6 mm
08:22 PM 74.1°F23.4°C 72.9°F22.7°C 96% 1.8 mph SE2.9 kmh SE 6.0 mph9.7 kmh 29.90 in1012.5 mb 0.00 in0.0 mm 0.00 in0.0 mm 0.34 in8.6 mm
08:27 PM 74.1°F23.4°C 72.9°F22.7°C 96% 2.3 mph SE3.7 kmh SE 6.0 mph9.7 kmh 29.90 in1012.5 mb 0.00 in0.0 mm 0.00 in0.0 mm 0.34 in8.6 mm
08:32 PM 74.0°F23.3°C 72.8°F22.7°C 96% 1.7 mph SE2.7 kmh SE 6.0 mph9.7 kmh 29.89 in1012.2 mb 0.00 in0.0 mm 0.00 in0.0 mm 0.34 in8.6 mm
08:37 PM 73.9°F23.3°C 72.7°F22.6°C 96% 1.3 mph SSE2.1 kmh SSE 6.0 mph9.7 kmh 29.89 in1012.2 mb 0.00 in0.0 mm 0.00 in0.0 mm 0.34 in8.6 mm
08:42 PM 73.9°F23.3°C 72.7°F22.6°C 96% 2.3 mph SE3.7 kmh SE 5.0 mph8.0 kmh 29.89 in1012.2 mb 0.00 in0.0 mm 0.00 in0.0 mm 0.34 in8.6 mm
08:47 PM 73.8°F23.2°C 72.6°F22.6°C 96% 1.3 mph SE2.1 kmh SE 5.0 mph8.0 kmh 29.89 in1012.2 mb 0.00 in0.0 mm 0.00 in0.0 mm 0.34 in8.6 mm
08:52 PM 73.8°F23.2°C 72.6°F22.6°C 96% 1.3 mph SE2.1 kmh SE 5.0 mph8.0 kmh 29.89 in1012.2 mb 0.00 in0.0 mm 0.00 in0.0 mm 0.34 in8.6 mm
08:57 PM 73.7°F23.2°C 72.5°F22.5°C 96% 1.6 mph SE2.6 kmh SE 5.0 mph8.0 kmh 29.89 in1012.2 mb 0.00 in0.0 mm 0.00 in0.0 mm 0.34 in8.6 mm
09:02 PM 73.7°F23.2°C 72.5°F22.5°C 96% 1.4 mph SE2.3 kmh SE 3.0 mph4.8 kmh 29.89 in1012.2 mb 0.00 in0.0 mm 0.00 in0.0 mm 0.34 in8.6 mm
09:07 PM 73.6°F23.1°C 72.4°F22.4°C 96% 1.6 mph SE2.6 kmh SE 3.0 mph4.8 kmh 29.89 in1012.2 mb 0.00 in0.0 mm 0.00 in0.0 mm 0.34 in8.6 mm
09:12 PM 73.6°F23.1°C 72.4°F22.4°C 96% 1.4 mph SE2.3 kmh SE 3.0 mph4.8 kmh 29.89 in1012.2 mb 0.00 in0.0 mm 0.00 in0.0 mm 0.34 in8.6 mm
09:17 PM 73.6°F23.1°C 72.4°F22.4°C 96% Calm Calm 3.0 mph4.8 kmh 29.90 in1012.5 mb 0.00 in0.0 mm 0.00 in0.0 mm 0.34 in8.6 mm
09:22 PM 73.6°F23.1°C 72.4°F22.4°C 96% 1.2 mph SE1.9 kmh SE 3.0 mph4.8 kmh 29.90 in1012.5 mb 0.00 in0.0 mm 0.00 in0.0 mm 0.34 in8.6 mm
09:27 PM 73.6°F23.1°C 72.4°F22.4°C 96% 1.0 mph SE1.6 kmh SE 3.0 mph4.8 kmh 29.91 in1012.9 mb 0.00 in0.0 mm 0.00 in0.0 mm 0.34 in8.6 mm
09:32 PM 73.5°F23.1°C 72.3°F22.4°C 96% 1.0 mph SW1.6 kmh SW 3.0 mph4.8 kmh 29.91 in1012.9 mb 0.00 in0.0 mm 0.00 in0.0 mm 0.34 in8.6 mm
09:37 PM 73.5°F23.1°C 72.3°F22.4°C 96% 1.0 mph E1.6 kmh E 3.0 mph4.8 kmh 29.91 in1012.9 mb 0.00 in0.0 mm 0.00 in0.0 mm 0.34 in8.6 mm
09:42 PM 73.4°F23.0°C 72.2°F22.3°C 96% 1.0 mph SE1.6 kmh SE 3.0 mph4.8 kmh 29.91 in1012.9 mb 0.00 in0.0 mm 0.00 in0.0 mm 0.34 in8.6 mm
09:47 PM 73.4°F23.0°C 72.2°F22.3°C 96% 1.2 mph SE1.9 kmh SE 2.0 mph3.2 kmh 29.92 in1013.2 mb 0.00 in0.0 mm 0.00 in0.0 mm 0.34 in8.6 mm
09:52 PM 73.3°F22.9°C 72.1°F22.3°C 96% 1.5 mph SE2.4 kmh SE 3.0 mph4.8 kmh 29.92 in1013.2 mb 0.00 in0.0 mm 0.00 in0.0 mm 0.34 in8.6 mm
09:57 PM 73.3°F22.9°C 72.1°F22.3°C 96% 1.1 mph SE1.8 kmh SE 3.0 mph4.8 kmh 29.92 in1013.2 mb 0.00 in0.0 mm 0.00 in0.0 mm 0.34 in8.6 mm
10:02 PM 73.2°F22.9°C 72.0°F22.2°C 96% 1.7 mph SE2.7 kmh SE 4.0 mph6.4 kmh 29.92 in1013.2 mb 0.00 in0.0 mm 0.00 in0.0 mm 0.34 in8.6 mm
10:07 PM 73.1°F22.8°C 71.9°F22.2°C 96% 1.5 mph SE2.4 kmh SE 4.0 mph6.4 kmh 29.91 in1012.9 mb 0.00 in0.0 mm 0.00 in0.0 mm 0.34 in8.6 mm
10:12 PM 73.1°F22.8°C 72.2°F22.3°C 97% 1.0 mph SE1.6 kmh SE 4.0 mph6.4 kmh 29.91 in1012.9 mb 0.00 in0.0 mm 0.00 in0.0 mm 0.34 in8.6 mm
10:17 PM 73.0°F22.8°C 72.1°F22.3°C 97% 2.3 mph SE3.7 kmh SE 5.0 mph8.0 kmh 29.92 in1013.2 mb 0.00 in0.0 mm 0.00 in0.0 mm 0.34 in8.6 mm
10:22 PM 72.9°F22.7°C 72.0°F22.2°C 97% 2.6 mph SE4.2 kmh SE 5.0 mph8.0 kmh 29.92 in1013.2 mb 0.00 in0.0 mm 0.00 in0.0 mm 0.34 in8.6 mm
10:27 PM 72.9°F22.7°C 72.0°F22.2°C 97% 2.6 mph ESE4.2 kmh ESE 5.0 mph8.0 kmh 29.92 in1013.2 mb 0.00 in0.0 mm 0.00 in0.0 mm 0.34 in8.6 mm
10:32 PM 72.8°F22.7°C 71.9°F22.2°C 97% 3.3 mph ESE5.3 kmh ESE 6.0 mph9.7 kmh 29.92 in1013.2 mb 0.00 in0.0 mm 0.00 in0.0 mm 0.34 in8.6 mm
10:37 PM 72.8°F22.7°C 71.9°F22.2°C 97% 2.4 mph SE3.9 kmh SE 6.0 mph9.7 kmh 29.92 in1013.2 mb 0.00 in0.0 mm 0.00 in0.0 mm 0.34 in8.6 mm
10:42 PM 72.7°F22.6°C 71.8°F22.1°C 97% 1.5 mph ESE2.4 kmh ESE 6.0 mph9.7 kmh 29.92 in1013.2 mb 0.00 in0.0 mm 0.00 in0.0 mm 0.34 in8.6 mm
10:47 PM 72.7°F22.6°C 71.8°F22.1°C 97% 2.1 mph SE3.4 kmh SE 6.0 mph9.7 kmh 29.92 in1013.2 mb 0.00 in0.0 mm 0.00 in0.0 mm 0.34 in8.6 mm
10:52 PM 72.7°F22.6°C 71.8°F22.1°C 97% 3.0 mph SE4.8 kmh SE 5.0 mph8.0 kmh 29.92 in1013.2 mb 0.00 in0.0 mm 0.00 in0.0 mm 0.34 in8.6 mm
10:57 PM 72.6°F22.6°C 71.7°F22.1°C 97% 2.3 mph SE3.7 kmh SE 5.0 mph8.0 kmh 29.92 in1013.2 mb 0.00 in0.0 mm 0.00 in0.0 mm 0.34 in8.6 mm
11:02 PM 72.5°F22.5°C 71.6°F22.0°C 97% 1.7 mph ESE2.7 kmh ESE 5.0 mph8.0 kmh 29.92 in1013.2 mb 0.00 in0.0 mm 0.00 in0.0 mm 0.34 in8.6 mm
11:07 PM 72.5°F22.5°C 71.6°F22.0°C 97% 1.8 mph SE2.9 kmh SE 5.0 mph8.0 kmh 29.92 in1013.2 mb 0.00 in0.0 mm 0.00 in0.0 mm 0.34 in8.6 mm
11:11 PM 72.4°F22.4°C 71.5°F21.9°C 97% 1.4 mph SE2.3 kmh SE 5.0 mph8.0 kmh 29.92 in1013.2 mb 0.00 in0.0 mm 0.00 in0.0 mm 0.34 in8.6 mm
11:16 PM 72.4°F22.4°C 71.5°F21.9°C 97% 1.0 mph SE1.6 kmh SE 5.0 mph8.0 kmh 29.92 in1013.2 mb 0.00 in0.0 mm 0.00 in0.0 mm 0.34 in8.6 mm
11:21 PM 72.4°F22.4°C 71.5°F21.9°C 97% 1.0 mph SE1.6 kmh SE 5.0 mph8.0 kmh 29.92 in1013.2 mb 0.00 in0.0 mm 0.00 in0.0 mm 0.34 in8.6 mm
11:26 PM 72.3°F22.4°C 71.4°F21.9°C 97% 1.5 mph ESE2.4 kmh ESE 4.0 mph6.4 kmh 29.92 in1013.2 mb 0.00 in0.0 mm 0.00 in0.0 mm 0.34 in8.6 mm
11:31 PM 72.2°F22.3°C 71.3°F21.8°C 97% 2.6 mph ESE4.2 kmh ESE 5.0 mph8.0 kmh 29.92 in1013.2 mb 0.00 in0.0 mm 0.00 in0.0 mm 0.34 in8.6 mm
11:36 PM 72.1°F22.3°C 71.2°F21.8°C 97% 2.3 mph SE3.7 kmh SE 5.0 mph8.0 kmh 29.92 in1013.2 mb 0.00 in0.0 mm 0.00 in0.0 mm 0.34 in8.6 mm
11:41 PM 72.0°F22.2°C 71.1°F21.7°C 97% 1.7 mph SE2.7 kmh SE 5.0 mph8.0 kmh 29.92 in1013.2 mb 0.00 in0.0 mm 0.00 in0.0 mm 0.34 in8.6 mm
11:46 PM 72.0°F22.2°C 71.1°F21.7°C 97% 1.5 mph SE2.4 kmh SE 5.0 mph8.0 kmh 29.92 in1013.2 mb 0.00 in0.0 mm 0.00 in0.0 mm 0.34 in8.6 mm
11:51 PM 72.0°F22.2°C 71.1°F21.7°C 97% 1.5 mph SE2.4 kmh SE 5.0 mph8.0 kmh 29.92 in1013.2 mb 0.00 in0.0 mm 0.00 in0.0 mm 0.34 in8.6 mm
11:56 PM 72.0°F22.2°C 71.4°F21.9°C 98% 1.3 mph SE2.1 kmh SE 4.0 mph6.4 kmh 29.92 in1013.2 mb 0.00 in0.0 mm 0.00 in0.0 mm 0.34 in8.6 mm